createdAt,value
2023-02-05T00:00:43.659Z,3.80
2023-02-05T00:03:12.099Z,3.10
2023-02-05T00:05:40.170Z,3.60
2023-02-05T00:08:08.361Z,2.90
2023-02-05T00:10:36.425Z,3.50
2023-02-05T00:13:04.675Z,3.00
2023-02-05T00:15:33.045Z,3.40
2023-02-05T00:18:01.137Z,2.90
2023-02-05T00:20:29.321Z,3.00
2023-02-05T00:22:57.768Z,2.40
2023-02-05T00:25:26.381Z,3.20
2023-02-05T00:27:54.430Z,2.40
2023-02-05T00:30:22.460Z,3.30
2023-02-05T00:32:50.818Z,3.10
2023-02-05T00:35:19.015Z,3.10
2023-02-05T00:37:47.061Z,3.00
2023-02-05T00:40:15.678Z,3.00
2023-02-05T00:42:44.557Z,2.80
2023-02-05T00:45:12.472Z,2.70
2023-02-05T00:47:40.445Z,3.30
2023-02-05T00:50:08.777Z,2.50
2023-02-05T00:52:36.739Z,2.80
2023-02-05T00:55:05.381Z,2.90
2023-02-05T00:57:33.541Z,2.90
2023-02-05T01:00:02.134Z,3.30
2023-02-05T01:02:30.681Z,2.50
2023-02-05T01:04:59.356Z,2.80
2023-02-05T01:07:27.822Z,2.70
2023-02-05T01:09:55.843Z,3.00
2023-02-05T01:12:23.878Z,3.10
2023-02-05T01:14:52.276Z,2.90
2023-02-05T01:17:20.568Z,3.00
2023-02-05T01:19:48.704Z,2.80
2023-02-05T01:22:16.683Z,2.10
2023-02-05T01:24:44.582Z,2.50
2023-02-05T01:27:12.779Z,2.60
2023-02-05T01:29:41.711Z,3.40
2023-02-05T01:32:09.889Z,3.20
2023-02-05T01:34:38.745Z,3.50
2023-02-05T01:37:06.932Z,4.00
2023-02-05T01:39:37.577Z,3.40
2023-02-05T01:42:15.190Z,6.20
2023-02-05T01:44:43.328Z,8.20
2023-02-05T01:47:13.326Z,5.10
2023-02-05T01:49:42.889Z,3.90
2023-02-05T01:52:12.666Z,3.80
2023-02-05T01:54:43.210Z,3.10
2023-02-05T01:57:14.761Z,3.20
2023-02-05T01:59:42.743Z,2.90
2023-02-05T02:02:11.105Z,3.30
2023-02-05T02:04:41.966Z,2.90
2023-02-05T02:07:12.689Z,2.90
2023-02-05T02:09:41.505Z,3.00
2023-02-05T02:12:14.164Z,2.90
2023-02-05T02:14:43.087Z,3.00
2023-02-05T02:17:11.066Z,2.30
2023-02-05T02:19:58.899Z,2.80
2023-02-05T02:23:09.409Z,2.50
2023-02-05T02:26:01.337Z,2.10
2023-02-05T02:28:38.722Z,2.60
2023-02-05T02:31:17.446Z,3.30
2023-02-05T02:33:52.940Z,2.70
2023-02-05T02:36:24.137Z,2.60
2023-02-05T02:39:13.298Z,3.10
2023-02-05T02:41:43.723Z,2.60
2023-02-05T02:44:18.484Z,2.60
2023-02-05T02:46:49.098Z,2.40
2023-02-05T02:49:21.362Z,3.00
2023-02-05T02:51:49.266Z,3.20
2023-02-05T02:54:18.717Z,3.40
2023-02-05T02:56:47.635Z,3.20
2023-02-05T02:59:18.026Z,3.20
2023-02-05T03:01:53.742Z,3.40
2023-02-05T03:04:42.973Z,3.50
2023-02-05T03:07:17.726Z,3.50
2023-02-05T03:09:57.145Z,3.10
2023-02-05T03:12:29.931Z,2.90
2023-02-05T03:14:58.804Z,3.00
2023-02-05T03:17:27.079Z,2.90
2023-02-05T03:20:20.768Z,3.40
2023-02-05T03:22:48.828Z,3.30
2023-02-05T03:25:19.431Z,4.70
2023-02-05T03:27:48.262Z,3.10
2023-02-05T03:30:16.833Z,3.70
2023-02-05T03:33:03.184Z,3.60
2023-02-05T03:35:46.049Z,4.10
2023-02-05T03:38:30.895Z,3.90
2023-02-05T03:41:55.563Z,3.60
2023-02-05T03:44:51.704Z,4.10
2023-02-05T03:48:00.155Z,3.00
2023-02-05T03:50:31.429Z,3.10
2023-02-05T03:53:29.192Z,3.20
2023-02-05T03:56:25.701Z,4.50
2023-02-05T03:58:55.582Z,6.10
2023-02-05T04:01:24.381Z,11.70
2023-02-05T04:03:52.776Z,7.10
2023-02-05T04:06:20.939Z,6.80
2023-02-05T04:08:49.213Z,4.60
2023-02-05T04:11:17.870Z,4.90
2023-02-05T04:13:47.270Z,7.20
2023-02-05T04:16:16.117Z,5.40
2023-02-05T04:18:44.622Z,4.20
2023-02-05T04:21:13.123Z,4.60
2023-02-05T04:23:41.837Z,5.30
2023-02-05T04:26:09.842Z,4.20
2023-02-05T04:31:12.548Z,3.70
2023-02-05T04:33:41.356Z,4.90
2023-02-05T04:36:11.582Z,4.00
2023-02-05T04:38:39.526Z,4.10
2023-02-05T04:41:08.278Z,4.00
2023-02-05T04:43:36.706Z,4.40
2023-02-05T04:46:08.534Z,4.10
2023-02-05T04:48:37.508Z,3.40
2023-02-05T04:51:07.457Z,3.10
2023-02-05T04:53:35.872Z,5.10
2023-02-05T04:56:08.987Z,8.20
2023-02-05T04:58:37.107Z,9.40
2023-02-05T05:01:05.305Z,8.50
2023-02-05T05:03:34.083Z,5.20
2023-02-05T05:06:06.086Z,7.60
2023-02-05T05:08:34.713Z,9.90
2023-02-05T05:11:07.194Z,6.40
2023-02-05T05:13:35.718Z,6.30
2023-02-05T05:16:04.542Z,9.80
2023-02-05T05:18:33.729Z,11.40
2023-02-05T05:21:02.397Z,7.40
2023-02-05T05:23:31.320Z,5.70
2023-02-05T05:25:59.310Z,5.30
2023-02-05T05:28:27.820Z,4.70
2023-02-05T05:30:55.891Z,4.60
2023-02-05T05:33:24.254Z,5.50
2023-02-05T05:35:52.409Z,7.10
2023-02-05T05:38:20.405Z,5.10
2023-02-05T05:41:07.187Z,5.10
2023-02-05T05:43:47.320Z,4.10
2023-02-05T05:46:23.793Z,4.90
2023-02-05T05:48:56.415Z,4.30
2023-02-05T05:51:26.217Z,5.00
2023-02-05T05:53:54.770Z,4.30
2023-02-05T05:56:22.793Z,5.40
2023-02-05T05:58:50.908Z,4.40
2023-02-05T06:01:20.488Z,4.00
2023-02-05T06:03:49.002Z,4.40
2023-02-05T06:06:17.005Z,4.50
2023-02-05T06:08:45.350Z,4.80
2023-02-05T06:11:13.338Z,5.00
2023-02-05T06:13:41.920Z,5.60
2023-02-05T06:16:10.187Z,4.90
2023-02-05T06:18:39.095Z,4.80
2023-02-05T06:21:07.100Z,4.90
2023-02-05T06:23:35.942Z,4.80
2023-02-05T06:26:04.398Z,5.10
2023-02-05T06:28:32.373Z,5.40
2023-02-05T06:31:47.342Z,5.50
2023-02-05T06:34:15.593Z,5.20
2023-02-05T06:36:43.848Z,5.50
2023-02-05T06:39:12.469Z,4.70
2023-02-05T06:41:40.430Z,5.20
2023-02-05T06:44:08.448Z,4.70
2023-02-05T06:46:37.074Z,5.10
2023-02-05T06:49:05.732Z,4.90
2023-02-05T06:51:33.996Z,5.80
2023-02-05T06:54:02.825Z,5.10
2023-02-05T06:56:30.958Z,6.00
2023-02-05T06:59:00.336Z,5.50
2023-02-05T07:01:28.506Z,6.80
2023-02-05T07:03:58.230Z,9.20
2023-02-05T07:06:26.680Z,8.20
2023-02-05T07:08:56.127Z,6.20
2023-02-05T07:11:25.226Z,6.30
2023-02-05T07:13:54.187Z,5.90
2023-02-05T07:16:22.617Z,5.40
2023-02-05T07:18:53.499Z,5.50
2023-02-05T07:21:22.353Z,6.00
2023-02-05T07:23:50.584Z,7.40
2023-02-05T07:26:19.586Z,6.30
2023-02-05T07:28:47.451Z,6.60
2023-02-05T07:31:17.011Z,6.20
2023-02-05T07:33:46.941Z,5.00
2023-02-05T07:36:16.582Z,5.70
2023-02-05T07:38:45.592Z,6.60
2023-02-05T07:41:14.802Z,7.10
2023-02-05T07:43:42.897Z,6.40
2023-02-05T07:46:12.533Z,7.20
2023-02-05T07:48:40.532Z,7.70
2023-02-05T07:51:08.634Z,5.90
2023-02-05T07:53:36.582Z,7.50
2023-02-05T07:56:04.967Z,6.50
2023-02-05T07:58:32.928Z,7.00
2023-02-05T08:01:04.017Z,7.60
2023-02-05T08:03:32.505Z,6.50
2023-02-05T08:06:05.340Z,5.90
2023-02-05T08:08:33.718Z,6.70
2023-02-05T08:11:03.617Z,6.20
2023-02-05T08:13:36.685Z,6.60
2023-02-05T08:16:07.191Z,6.50
2023-02-05T08:18:38.596Z,6.70
2023-02-05T08:21:06.885Z,6.90
2023-02-05T08:23:35.032Z,6.60
2023-02-05T08:26:03.872Z,6.00
2023-02-05T08:28:33.670Z,6.60
2023-02-05T08:31:10.735Z,6.40
2023-02-05T08:33:39.018Z,6.20
2023-02-05T08:36:07.699Z,6.30
2023-02-05T08:38:35.724Z,6.50
2023-02-05T08:41:12.715Z,6.80
2023-02-05T08:43:42.238Z,7.60
2023-02-05T08:46:10.841Z,5.30
2023-02-05T08:48:39.029Z,6.50
2023-02-05T08:51:09.725Z,6.50
2023-02-05T08:53:38.004Z,6.90
2023-02-05T08:56:06.556Z,6.50
2023-02-05T08:58:34.629Z,6.50
2023-02-05T09:01:08.497Z,7.60
2023-02-05T09:03:36.670Z,8.30
2023-02-05T09:06:08.254Z,7.10
2023-02-05T09:08:36.741Z,8.00
2023-02-05T09:11:05.768Z,7.50
2023-02-05T09:13:36.331Z,9.30
2023-02-05T09:16:05.271Z,10.10
2023-02-05T09:18:33.860Z,7.80
2023-02-05T09:21:01.832Z,7.80
2023-02-05T09:23:30.155Z,7.80
2023-02-05T09:26:01.343Z,7.50
2023-02-05T09:28:29.518Z,7.20
2023-02-05T09:30:58.152Z,6.90
2023-02-05T09:33:26.330Z,9.10
2023-02-05T09:35:54.360Z,8.40
2023-02-05T09:38:23.575Z,7.90
2023-02-05T09:40:59.313Z,7.60
2023-02-05T09:43:30.778Z,7.20
2023-02-05T09:48:29.929Z,5.80
2023-02-05T10:14:21.037Z,6.40
2023-02-05T10:17:01.426Z,6.60
2023-02-05T10:19:54.672Z,6.40
2023-02-05T10:22:33.342Z,6.80
2023-02-05T10:25:48.462Z,6.90
2023-02-05T10:29:16.624Z,7.20
2023-02-05T10:31:54.795Z,7.60
2023-02-05T10:34:54.235Z,7.60
2023-02-05T10:37:29.337Z,7.60
2023-02-05T10:39:57.494Z,6.50
2023-02-05T10:42:32.973Z,7.10
2023-02-05T10:45:25.376Z,7.10
2023-02-05T10:48:19.301Z,7.70
2023-02-05T10:51:09.282Z,8.00
2023-02-05T10:53:38.657Z,7.70
2023-02-05T10:56:06.867Z,7.40
2023-02-05T10:58:55.011Z,6.90
2023-02-05T11:01:33.795Z,7.60
2023-02-05T11:04:14.195Z,7.70
2023-02-05T11:06:50.520Z,8.20
2023-02-05T11:09:24.488Z,8.10
2023-02-05T11:11:57.511Z,7.60
2023-02-05T11:14:38.681Z,7.40
2023-02-05T11:17:18.142Z,7.10
2023-02-05T11:20:08.761Z,7.50
2023-02-05T11:22:40.704Z,7.70
2023-02-05T11:25:19.134Z,8.30
2023-02-05T11:27:53.977Z,8.40
2023-02-05T11:30:56.014Z,7.40
2023-02-05T11:33:24.372Z,7.60
2023-02-05T11:35:57.607Z,7.90
2023-02-05T11:38:48.388Z,8.10
2023-02-05T11:41:28.591Z,8.10
2023-02-05T11:43:58.029Z,8.10
2023-02-05T11:46:28.125Z,9.00
2023-02-05T11:49:00.176Z,8.20
2023-02-05T11:51:30.045Z,8.50
2023-02-05T11:53:59.101Z,6.60
2023-02-05T11:56:27.173Z,7.20
2023-02-05T11:59:04.510Z,6.60
2023-02-05T12:01:34.312Z,7.70
2023-02-05T12:04:11.697Z,6.90
2023-02-05T12:06:42.437Z,7.30
2023-02-05T12:09:12.909Z,7.80
2023-02-05T12:12:03.842Z,7.40
2023-02-05T12:14:56.706Z,6.70
2023-02-05T12:17:40.216Z,7.50
2023-02-05T12:20:28.799Z,8.50
2023-02-05T12:23:32.315Z,8.10
2023-02-05T12:26:22.227Z,8.00
2023-02-05T12:28:56.669Z,9.10
2023-02-05T12:31:48.335Z,7.60
2023-02-05T12:34:42.566Z,8.40
2023-02-05T12:37:18.802Z,7.90
2023-02-05T12:39:54.855Z,7.90
2023-02-05T12:42:36.567Z,8.00
2023-02-05T12:45:23.205Z,9.20
2023-02-05T12:48:03.119Z,7.40
2023-02-05T12:50:55.246Z,7.70
2023-02-05T12:53:54.688Z,6.90
2023-02-05T12:56:45.034Z,8.40
2023-02-05T12:59:19.685Z,8.20
2023-02-05T13:01:59.962Z,7.60
2023-02-05T13:04:34.121Z,9.30
2023-02-05T13:07:41.575Z,9.00
2023-02-05T13:10:23.040Z,9.30
2023-02-05T13:13:03.247Z,9.60
2023-02-05T13:15:42.461Z,10.10
2023-02-05T13:18:14.285Z,9.00
2023-02-05T13:21:30.269Z,9.20
2023-02-05T13:24:52.822Z,8.60
2023-02-05T13:27:48.236Z,8.10
2023-02-05T13:30:21.268Z,8.60
2023-02-05T13:32:52.000Z,8.00
2023-02-05T13:35:22.291Z,8.80
2023-02-05T13:38:10.877Z,7.80
2023-02-05T13:40:58.289Z,7.20
2023-02-05T13:43:49.933Z,6.90
2023-02-05T13:46:43.077Z,7.60
2023-02-05T13:49:29.473Z,9.10
2023-02-05T13:52:00.643Z,7.70
2023-02-05T13:54:38.395Z,7.90
2023-02-05T13:57:33.299Z,7.70
2023-02-05T14:00:01.372Z,8.60
2023-02-05T14:02:33.987Z,10.10
2023-02-05T14:05:03.100Z,10.20
2023-02-05T14:07:33.987Z,9.30
2023-02-05T14:10:02.994Z,8.40
2023-02-05T14:12:38.222Z,8.90
2023-02-05T14:15:16.392Z,9.20
2023-02-05T14:17:49.015Z,11.00
2023-02-05T14:20:43.457Z,12.20
2023-02-05T14:23:33.982Z,8.70
2023-02-05T14:26:03.992Z,7.90
2023-02-05T14:28:35.396Z,7.90
2023-02-05T14:31:05.793Z,8.10
2023-02-05T14:33:41.089Z,8.40
2023-02-05T14:36:16.128Z,8.20
2023-02-05T14:38:54.927Z,7.80
2023-02-05T14:41:28.861Z,7.20
2023-02-05T14:43:58.234Z,8.00
2023-02-05T14:46:41.619Z,8.30
2023-02-05T14:49:33.011Z,8.10
2023-02-05T14:52:02.983Z,7.30
2023-02-05T14:54:40.564Z,7.40
2023-02-05T14:57:09.202Z,8.10
2023-02-05T14:59:51.845Z,7.90
2023-02-05T15:02:45.622Z,8.10
2023-02-05T15:05:37.970Z,8.50
2023-02-05T15:08:18.490Z,9.50
2023-02-05T15:11:08.042Z,8.60
2023-02-05T15:13:36.372Z,8.30
2023-02-05T15:16:11.680Z,9.20
2023-02-05T15:18:40.002Z,8.80
2023-02-05T15:21:32.321Z,8.20
2023-02-05T15:24:02.354Z,7.70
2023-02-05T15:26:53.418Z,8.90
2023-02-05T15:29:26.793Z,8.90
2023-02-05T15:31:58.078Z,9.30
2023-02-05T15:34:48.590Z,9.80
2023-02-05T15:37:25.560Z,9.30
2023-02-05T15:39:55.858Z,8.10
2023-02-05T15:42:31.847Z,10.50
2023-02-05T15:45:29.508Z,8.80
2023-02-05T15:48:11.155Z,9.70
2023-02-05T15:50:49.748Z,10.00
2023-02-05T15:53:38.005Z,8.40
2023-02-05T15:56:35.665Z,9.50
2023-02-05T15:59:09.782Z,8.70
2023-02-05T16:01:46.732Z,8.10
2023-02-05T16:04:22.217Z,9.40
2023-02-05T16:06:55.215Z,8.90
2023-02-05T16:09:25.836Z,8.50
2023-02-05T16:11:57.910Z,9.10
2023-02-05T16:14:28.675Z,8.60
2023-02-05T16:17:06.610Z,8.90
2023-02-05T16:19:41.087Z,8.90
2023-02-05T16:22:35.834Z,8.60
2023-02-05T16:25:07.714Z,9.80
2023-02-05T16:27:44.431Z,8.60
2023-02-05T16:30:19.115Z,8.50
2023-02-05T16:32:47.726Z,8.90
2023-02-05T16:35:23.590Z,9.60
2023-02-05T16:37:52.116Z,9.30
2023-02-05T16:40:30.736Z,10.10
2023-02-05T17:29:15.015Z,9.60
2023-02-05T17:31:43.545Z,9.70
2023-02-05T17:34:13.512Z,7.30
2023-02-05T17:36:41.569Z,6.50
2023-02-05T17:39:09.517Z,7.10
2023-02-05T17:41:56.151Z,7.70
2023-02-05T17:44:24.248Z,9.90
2023-02-05T17:46:54.329Z,10.30
2023-02-05T17:49:23.250Z,8.10
2023-02-05T17:51:52.737Z,7.60
2023-02-05T17:54:24.082Z,8.30
2023-02-05T17:56:54.618Z,11.30
2023-02-05T17:59:24.202Z,11.10
2023-02-05T18:01:53.404Z,9.80
2023-02-05T18:04:21.578Z,9.50
2023-02-05T18:06:50.521Z,8.40
2023-02-05T18:09:20.058Z,8.80
2023-02-05T18:11:49.552Z,9.30
2023-02-05T18:14:19.914Z,8.10
2023-02-05T18:16:48.713Z,6.90
2023-02-05T18:19:17.206Z,6.60
2023-02-05T18:21:47.452Z,9.10
2023-02-05T18:24:15.964Z,10.00
2023-02-05T18:26:44.146Z,12.60
2023-02-05T18:29:13.686Z,11.00
2023-02-05T18:31:48.574Z,8.80
2023-02-05T18:34:16.789Z,10.00
2023-02-05T18:36:45.225Z,11.50
2023-02-05T18:39:13.427Z,10.60
2023-02-05T18:41:41.856Z,7.30
2023-02-05T18:44:10.356Z,7.50
2023-02-05T18:46:38.560Z,8.80
2023-02-05T18:49:06.912Z,9.10
2023-02-05T18:51:37.628Z,9.30
2023-02-05T18:54:08.756Z,7.40
2023-02-05T18:56:37.423Z,7.90
2023-02-05T18:59:07.411Z,8.40
2023-02-05T19:01:38.358Z,7.40
2023-02-05T19:04:13.206Z,6.60
2023-02-05T19:06:43.716Z,6.90
2023-02-05T19:09:12.089Z,7.00
2023-02-05T19:11:41.776Z,7.70
2023-02-05T19:14:14.702Z,8.20
2023-02-05T19:19:14.591Z,9.00
2023-02-05T19:21:45.095Z,9.90
2023-02-05T19:24:13.472Z,11.00
2023-02-05T19:26:43.835Z,7.50
2023-02-05T19:29:16.617Z,6.80
2023-02-05T19:31:45.056Z,8.30
2023-02-05T19:34:13.225Z,6.90
2023-02-05T19:36:41.802Z,7.00
2023-02-05T19:39:11.667Z,6.80
2023-02-05T19:41:40.456Z,7.90
2023-02-05T19:44:08.990Z,7.90
2023-02-05T19:46:44.556Z,9.40
2023-02-05T19:49:20.559Z,9.10
2023-02-05T19:51:51.845Z,7.90
2023-02-05T19:54:21.574Z,6.50
2023-02-05T19:56:51.134Z,8.20
2023-02-05T19:59:19.554Z,10.10
2023-02-05T20:01:49.045Z,11.20
2023-02-05T20:04:21.803Z,14.80
2023-02-05T20:06:53.074Z,13.60
2023-02-05T20:09:21.490Z,12.00
2023-02-05T20:11:50.287Z,10.90
2023-02-05T20:14:18.788Z,10.10
2023-02-05T20:16:47.401Z,10.10
2023-02-05T20:19:16.076Z,7.70
2023-02-05T20:21:45.387Z,7.10
2023-02-05T20:24:14.969Z,7.70
2023-02-05T20:26:43.243Z,8.00
2023-02-05T20:29:30.300Z,9.40
2023-02-05T20:32:00.636Z,8.00
2023-02-05T20:34:31.257Z,7.60
2023-02-05T20:37:02.266Z,8.50
2023-02-05T20:39:30.614Z,6.90
2023-02-05T20:41:59.163Z,6.70
2023-02-05T20:44:29.408Z,6.20
2023-02-05T20:46:57.469Z,7.90
2023-02-05T20:49:25.824Z,8.40
2023-02-05T20:51:54.422Z,9.40
2023-02-05T20:54:22.896Z,9.30
2023-02-05T20:56:51.798Z,9.20
2023-02-05T20:59:19.750Z,10.40
2023-02-05T21:01:48.057Z,10.20
2023-02-05T21:04:16.347Z,11.00
2023-02-05T21:06:44.709Z,11.60
2023-02-05T21:09:13.343Z,10.70
2023-02-05T21:11:41.692Z,10.40
2023-02-05T21:14:19.254Z,20.60
2023-02-05T21:16:48.115Z,21.20
2023-02-05T21:19:18.273Z,22.50
2023-02-05T21:21:46.603Z,22.40
2023-02-05T21:24:15.621Z,21.70
2023-02-05T21:26:46.117Z,21.70
2023-02-05T21:29:19.593Z,21.20
2023-02-05T21:31:49.861Z,24.90
2023-02-05T21:34:21.884Z,24.80
2023-02-05T21:36:51.022Z,26.80
2023-02-05T21:39:20.655Z,25.00
2023-02-05T21:41:50.989Z,20.80
2023-02-05T21:44:19.025Z,16.90
2023-02-05T21:46:47.723Z,17.30
2023-02-05T21:49:15.746Z,16.70
2023-02-05T21:51:43.818Z,14.90
2023-02-05T21:54:11.858Z,14.20
2023-02-05T21:56:41.189Z,10.70
2023-02-05T21:59:11.026Z,9.40
2023-02-05T22:01:39.454Z,9.60
2023-02-05T22:04:11.570Z,7.90
2023-02-05T22:06:39.644Z,7.90
2023-02-05T22:09:12.752Z,11.20
2023-02-05T22:11:40.884Z,9.10
2023-02-05T22:14:09.379Z,8.70
2023-02-05T22:16:38.112Z,9.30
2023-02-05T22:19:06.818Z,8.40
2023-02-05T22:21:38.166Z,9.90
2023-02-05T22:24:06.292Z,8.60
2023-02-05T22:26:38.514Z,9.50
2023-02-05T22:29:07.590Z,9.40
2023-02-05T22:31:36.423Z,9.90
2023-02-05T22:34:04.552Z,11.30
2023-02-05T22:36:34.053Z,10.90
2023-02-05T22:39:02.311Z,12.00
2023-02-05T22:41:32.838Z,12.30
2023-02-05T22:44:01.425Z,10.40
2023-02-05T22:46:31.554Z,10.20
2023-02-05T22:49:00.560Z,10.00
2023-02-05T22:51:39.499Z,11.70
2023-02-05T22:54:08.578Z,10.30
2023-02-05T22:56:38.163Z,11.80
2023-02-05T22:59:06.683Z,11.70
2023-02-05T23:01:36.675Z,10.10
2023-02-05T23:04:05.898Z,10.20
2023-02-05T23:06:36.023Z,9.70
2023-02-05T23:09:06.908Z,9.20
2023-02-05T23:11:37.158Z,10.80
2023-02-05T23:14:05.945Z,10.10
2023-02-05T23:16:36.025Z,9.60
2023-02-05T23:19:07.513Z,9.50
2023-02-05T23:21:36.499Z,9.40
2023-02-05T23:24:05.371Z,9.00
2023-02-05T23:26:37.214Z,9.70
2023-02-05T23:29:05.764Z,9.50
2023-02-05T23:31:35.356Z,11.00
2023-02-05T23:34:03.425Z,8.20
2023-02-05T23:36:31.952Z,9.30
2023-02-05T23:39:00.079Z,8.80
2023-02-05T23:41:37.434Z,8.50
2023-02-05T23:44:18.327Z,9.60
2023-02-05T23:46:47.914Z,8.50
2023-02-05T23:49:16.586Z,8.10
2023-02-05T23:51:45.178Z,8.80
2023-02-05T23:54:13.543Z,7.40
2023-02-05T23:56:42.024Z,9.50
2023-02-05T23:59:12.111Z,8.00
